sensor_id;sensor_type;location;lat;lon;timestamp;P1;durP1;ratioP1;P2;durP2;ratioP2
10248;SDS011;5169;50.560;9.714;2022-08-19T00:01:51;35.53;;;28.53;;
10248;SDS011;5169;50.560;9.714;2022-08-19T00:04:25;33.67;;;27.07;;
10248;SDS011;5169;50.560;9.714;2022-08-19T00:06:55;31.03;;;25.70;;
10248;SDS011;5169;50.560;9.714;2022-08-19T00:09:21;31.17;;;25.13;;
10248;SDS011;5169;50.560;9.714;2022-08-19T00:11:54;29.67;;;24.73;;
10248;SDS011;5169;50.560;9.714;2022-08-19T00:14:21;32.27;;;24.97;;
10248;SDS011;5169;50.560;9.714;2022-08-19T00:16:56;30.83;;;25.57;;
10248;SDS011;5169;50.560;9.714;2022-08-19T00:19:25;31.30;;;25.00;;
10248;SDS011;5169;50.560;9.714;2022-08-19T00:21:51;32.93;;;27.23;;
10248;SDS011;5169;50.560;9.714;2022-08-19T00:24:28;30.17;;;25.83;;
10248;SDS011;5169;50.560;9.714;2022-08-19T00:27:01;29.43;;;23.73;;
10248;SDS011;5169;50.560;9.714;2022-08-19T00:29:29;34.80;;;27.60;;
10248;SDS011;5169;50.560;9.714;2022-08-19T00:31:56;34.23;;;26.93;;
10248;SDS011;5169;50.560;9.714;2022-08-19T00:34:27;32.70;;;26.17;;
10248;SDS011;5169;50.560;9.714;2022-08-19T00:36:55;32.43;;;26.10;;
10248;SDS011;5169;50.560;9.714;2022-08-19T00:39:21;33.43;;;25.80;;
10248;SDS011;5169;50.560;9.714;2022-08-19T00:41:55;30.77;;;26.20;;
10248;SDS011;5169;50.560;9.714;2022-08-19T00:44:31;32.90;;;26.93;;
10248;SDS011;5169;50.560;9.714;2022-08-19T00:46:58;33.50;;;26.60;;
10248;SDS011;5169;50.560;9.714;2022-08-19T00:49:47;34.07;;;28.10;;
10248;SDS011;5169;50.560;9.714;2022-08-19T00:52:34;32.60;;;26.30;;
10248;SDS011;5169;50.560;9.714;2022-08-19T00:55:10;30.97;;;26.13;;
10248;SDS011;5169;50.560;9.714;2022-08-19T00:57:46;33.33;;;26.43;;
10248;SDS011;5169;50.560;9.714;2022-08-19T01:00:29;32.40;;;25.73;;
10248;SDS011;5169;50.560;9.714;2022-08-19T01:03:05;26.43;;;22.00;;
10248;SDS011;5169;50.560;9.714;2022-08-19T01:05:33;28.90;;;23.90;;
10248;SDS011;5169;50.560;9.714;2022-08-19T01:08:10;28.87;;;23.57;;
10248;SDS011;5169;50.560;9.714;2022-08-19T01:10:45;28.23;;;23.37;;
10248;SDS011;5169;50.560;9.714;2022-08-19T01:13:16;30.73;;;24.43;;
10248;SDS011;5169;50.560;9.714;2022-08-19T01:15:46;27.67;;;23.00;;
10248;SDS011;5169;50.560;9.714;2022-08-19T01:18:27;26.57;;;22.93;;
10248;SDS011;5169;50.560;9.714;2022-08-19T01:20:56;25.00;;;21.23;;
10248;SDS011;5169;50.560;9.714;2022-08-19T01:23:27;25.20;;;21.80;;
10248;SDS011;5169;50.560;9.714;2022-08-19T01:26:08;26.83;;;21.20;;
10248;SDS011;5169;50.560;9.714;2022-08-19T01:28:38;24.03;;;20.93;;
10248;SDS011;5169;50.560;9.714;2022-08-19T01:31:05;22.50;;;19.63;;
10248;SDS011;5169;50.560;9.714;2022-08-19T01:33:35;24.17;;;21.13;;
10248;SDS011;5169;50.560;9.714;2022-08-19T01:36:23;23.43;;;20.60;;
10248;SDS011;5169;50.560;9.714;2022-08-19T01:38:54;27.30;;;22.47;;
10248;SDS011;5169;50.560;9.714;2022-08-19T01:41:21;27.73;;;22.90;;
10248;SDS011;5169;50.560;9.714;2022-08-19T01:43:51;24.93;;;20.77;;
10248;SDS011;5169;50.560;9.714;2022-08-19T01:46:19;26.37;;;21.77;;
10248;SDS011;5169;50.560;9.714;2022-08-19T01:48:46;35.27;;;27.77;;
10248;SDS011;5169;50.560;9.714;2022-08-19T01:51:12;35.60;;;28.03;;
10248;SDS011;5169;50.560;9.714;2022-08-19T01:53:43;29.13;;;25.20;;
10248;SDS011;5169;50.560;9.714;2022-08-19T01:56:15;34.73;;;27.57;;
10248;SDS011;5169;50.560;9.714;2022-08-19T01:58:43;34.57;;;26.93;;
10248;SDS011;5169;50.560;9.714;2022-08-19T02:01:18;32.17;;;26.57;;
10248;SDS011;5169;50.560;9.714;2022-08-19T02:03:47;31.33;;;26.33;;
10248;SDS011;5169;50.560;9.714;2022-08-19T02:06:12;31.13;;;24.53;;
10248;SDS011;5169;50.560;9.714;2022-08-19T02:08:39;29.10;;;23.60;;
10248;SDS011;5169;50.560;9.714;2022-08-19T02:11:17;28.03;;;23.93;;
10248;SDS011;5169;50.560;9.714;2022-08-19T02:13:45;27.00;;;22.53;;
10248;SDS011;5169;50.560;9.714;2022-08-19T02:16:11;27.80;;;21.40;;
10248;SDS011;5169;50.560;9.714;2022-08-19T02:18:39;24.37;;;20.67;;
10248;SDS011;5169;50.560;9.714;2022-08-19T02:21:10;27.93;;;22.73;;
10248;SDS011;5169;50.560;9.714;2022-08-19T02:23:46;24.50;;;20.83;;
10248;SDS011;5169;50.560;9.714;2022-08-19T02:26:12;23.67;;;20.70;;
10248;SDS011;5169;50.560;9.714;2022-08-19T02:28:38;23.83;;;19.83;;
10248;SDS011;5169;50.560;9.714;2022-08-19T02:31:15;23.00;;;19.67;;
10248;SDS011;5169;50.560;9.714;2022-08-19T02:33:45;23.23;;;20.13;;
10248;SDS011;5169;50.560;9.714;2022-08-19T02:36:12;23.50;;;20.97;;
10248;SDS011;5169;50.560;9.714;2022-08-19T02:38:43;26.23;;;20.90;;
10248;SDS011;5169;50.560;9.714;2022-08-19T02:41:16;24.47;;;20.97;;
10248;SDS011;5169;50.560;9.714;2022-08-19T02:43:45;21.90;;;19.57;;
10248;SDS011;5169;50.560;9.714;2022-08-19T02:46:23;23.30;;;19.10;;
10248;SDS011;5169;50.560;9.714;2022-08-19T02:48:57;28.73;;;24.10;;
10248;SDS011;5169;50.560;9.714;2022-08-19T02:51:26;35.33;;;28.10;;
10248;SDS011;5169;50.560;9.714;2022-08-19T02:54:08;35.83;;;29.20;;
10248;SDS011;5169;50.560;9.714;2022-08-19T02:56:36;35.17;;;28.97;;
10248;SDS011;5169;50.560;9.714;2022-08-19T02:59:03;36.53;;;29.87;;
10248;SDS011;5169;50.560;9.714;2022-08-19T03:01:33;37.57;;;27.73;;
10248;SDS011;5169;50.560;9.714;2022-08-19T03:04:00;37.87;;;29.90;;
10248;SDS011;5169;50.560;9.714;2022-08-19T03:06:35;37.97;;;30.33;;
10248;SDS011;5169;50.560;9.714;2022-08-19T03:09:02;39.60;;;31.57;;
10248;SDS011;5169;50.560;9.714;2022-08-19T03:11:30;35.17;;;28.50;;
10248;SDS011;5169;50.560;9.714;2022-08-19T03:14:05;32.13;;;26.77;;
10248;SDS011;5169;50.560;9.714;2022-08-19T03:16:43;33.60;;;27.37;;
10248;SDS011;5169;50.560;9.714;2022-08-19T03:19:13;29.07;;;23.43;;
10248;SDS011;5169;50.560;9.714;2022-08-19T03:21:48;28.57;;;21.87;;
10248;SDS011;5169;50.560;9.714;2022-08-19T03:24:14;27.13;;;22.17;;
10248;SDS011;5169;50.560;9.714;2022-08-19T03:26:41;26.27;;;22.47;;
10248;SDS011;5169;50.560;9.714;2022-08-19T03:29:17;24.23;;;21.10;;
10248;SDS011;5169;50.560;9.714;2022-08-19T03:31:44;24.30;;;21.43;;
10248;SDS011;5169;50.560;9.714;2022-08-19T03:34:18;22.70;;;20.20;;
10248;SDS011;5169;50.560;9.714;2022-08-19T03:36:53;24.27;;;21.30;;
10248;SDS011;5169;50.560;9.714;2022-08-19T03:39:24;23.80;;;21.23;;
10248;SDS011;5169;50.560;9.714;2022-08-19T03:41:53;24.43;;;20.60;;
10248;SDS011;5169;50.560;9.714;2022-08-19T03:44:23;22.27;;;19.87;;
10248;SDS011;5169;50.560;9.714;2022-08-19T03:46:50;23.60;;;19.67;;
10248;SDS011;5169;50.560;9.714;2022-08-19T03:49:23;24.23;;;20.60;;
10248;SDS011;5169;50.560;9.714;2022-08-19T03:51:52;22.20;;;19.80;;
10248;SDS011;5169;50.560;9.714;2022-08-19T03:54:19;22.10;;;19.50;;
10248;SDS011;5169;50.560;9.714;2022-08-19T03:56:51;21.87;;;18.63;;
10248;SDS011;5169;50.560;9.714;2022-08-19T03:59:24;23.03;;;19.87;;
10248;SDS011;5169;50.560;9.714;2022-08-19T04:02:00;24.23;;;21.10;;
10248;SDS011;5169;50.560;9.714;2022-08-19T04:04:30;23.37;;;20.87;;
10248;SDS011;5169;50.560;9.714;2022-08-19T04:06:59;23.30;;;20.33;;
10248;SDS011;5169;50.560;9.714;2022-08-19T04:09:25;22.43;;;19.60;;
10248;SDS011;5169;50.560;9.714;2022-08-19T04:11:55;24.00;;;21.40;;
10248;SDS011;5169;50.560;9.714;2022-08-19T04:14:26;24.13;;;21.27;;
10248;SDS011;5169;50.560;9.714;2022-08-19T04:16:55;25.60;;;20.63;;
10248;SDS011;5169;50.560;9.714;2022-08-19T04:19:24;26.03;;;20.83;;
10248;SDS011;5169;50.560;9.714;2022-08-19T04:21:50;27.30;;;21.30;;
10248;SDS011;5169;50.560;9.714;2022-08-19T04:24:18;26.10;;;20.47;;
10248;SDS011;5169;50.560;9.714;2022-08-19T04:26:48;24.20;;;21.33;;
10248;SDS011;5169;50.560;9.714;2022-08-19T04:29:19;24.40;;;21.70;;
10248;SDS011;5169;50.560;9.714;2022-08-19T04:31:55;26.93;;;23.10;;
10248;SDS011;5169;50.560;9.714;2022-08-19T04:34:22;26.83;;;21.73;;
10248;SDS011;5169;50.560;9.714;2022-08-19T04:36:54;26.90;;;22.57;;
10248;SDS011;5169;50.560;9.714;2022-08-19T04:39:22;23.97;;;21.07;;
10248;SDS011;5169;50.560;9.714;2022-08-19T04:42:18;26.60;;;21.97;;
10248;SDS011;5169;50.560;9.714;2022-08-19T04:45:08;27.67;;;22.33;;
10248;SDS011;5169;50.560;9.714;2022-08-19T04:47:44;24.90;;;21.07;;
10248;SDS011;5169;50.560;9.714;2022-08-19T04:50:10;26.33;;;22.00;;
10248;SDS011;5169;50.560;9.714;2022-08-19T04:52:41;26.40;;;21.47;;
10248;SDS011;5169;50.560;9.714;2022-08-19T04:55:08;25.87;;;21.13;;
10248;SDS011;5169;50.560;9.714;2022-08-19T04:57:39;24.93;;;22.30;;
10248;SDS011;5169;50.560;9.714;2022-08-19T05:00:10;22.50;;;19.07;;
10248;SDS011;5169;50.560;9.714;2022-08-19T05:02:42;24.77;;;20.70;;
10248;SDS011;5169;50.560;9.714;2022-08-19T05:05:10;22.70;;;19.27;;
10248;SDS011;5169;50.560;9.714;2022-08-19T05:07:40;22.80;;;20.17;;
10248;SDS011;5169;50.560;9.714;2022-08-19T05:10:08;21.13;;;18.67;;
10248;SDS011;5169;50.560;9.714;2022-08-19T05:12:37;21.47;;;17.83;;
10248;SDS011;5169;50.560;9.714;2022-08-19T05:15:13;20.67;;;18.37;;
10248;SDS011;5169;50.560;9.714;2022-08-19T05:17:47;23.77;;;19.33;;
10248;SDS011;5169;50.560;9.714;2022-08-19T05:20:34;27.13;;;19.10;;
10248;SDS011;5169;50.560;9.714;2022-08-19T05:23:21;20.80;;;18.23;;
10248;SDS011;5169;50.560;9.714;2022-08-19T05:25:49;19.77;;;17.67;;
10248;SDS011;5169;50.560;9.714;2022-08-19T05:28:18;20.00;;;17.90;;
10248;SDS011;5169;50.560;9.714;2022-08-19T05:30:45;19.63;;;17.23;;
10248;SDS011;5169;50.560;9.714;2022-08-19T05:33:11;19.53;;;16.77;;
10248;SDS011;5169;50.560;9.714;2022-08-19T05:35:46;22.63;;;20.20;;
10248;SDS011;5169;50.560;9.714;2022-08-19T05:38:14;23.83;;;20.40;;
10248;SDS011;5169;50.560;9.714;2022-08-19T05:40:46;25.73;;;22.13;;
10248;SDS011;5169;50.560;9.714;2022-08-19T05:43:13;23.40;;;20.30;;
10248;SDS011;5169;50.560;9.714;2022-08-19T05:45:43;22.43;;;18.80;;
10248;SDS011;5169;50.560;9.714;2022-08-19T05:48:10;21.67;;;19.13;;
10248;SDS011;5169;50.560;9.714;2022-08-19T05:50:37;23.23;;;19.43;;
10248;SDS011;5169;50.560;9.714;2022-08-19T05:53:08;20.77;;;16.63;;
10248;SDS011;5169;50.560;9.714;2022-08-19T05:55:34;21.43;;;16.70;;
10248;SDS011;5169;50.560;9.714;2022-08-19T05:58:03;17.90;;;16.07;;
10248;SDS011;5169;50.560;9.714;2022-08-19T06:00:37;19.53;;;16.23;;
10248;SDS011;5169;50.560;9.714;2022-08-19T06:03:03;17.93;;;15.03;;
10248;SDS011;5169;50.560;9.714;2022-08-19T06:05:32;18.27;;;14.90;;
10248;SDS011;5169;50.560;9.714;2022-08-19T06:08:02;15.30;;;13.77;;
10248;SDS011;5169;50.560;9.714;2022-08-19T06:10:32;19.13;;;16.20;;
10248;SDS011;5169;50.560;9.714;2022-08-19T06:12:58;16.63;;;14.33;;
10248;SDS011;5169;50.560;9.714;2022-08-19T06:15:24;16.53;;;14.73;;
10248;SDS011;5169;50.560;9.714;2022-08-19T06:17:59;18.70;;;15.20;;
10248;SDS011;5169;50.560;9.714;2022-08-19T06:20:26;14.87;;;13.20;;
10248;SDS011;5169;50.560;9.714;2022-08-19T06:23:02;14.87;;;11.90;;
10248;SDS011;5169;50.560;9.714;2022-08-19T06:25:27;18.17;;;14.80;;
10248;SDS011;5169;50.560;9.714;2022-08-19T06:28:00;15.37;;;13.83;;
10248;SDS011;5169;50.560;9.714;2022-08-19T06:30:28;16.90;;;14.87;;
10248;SDS011;5169;50.560;9.714;2022-08-19T06:32:57;15.77;;;13.00;;
10248;SDS011;5169;50.560;9.714;2022-08-19T06:35:22;13.80;;;12.23;;
10248;SDS011;5169;50.560;9.714;2022-08-19T06:37:48;15.13;;;13.53;;
10248;SDS011;5169;50.560;9.714;2022-08-19T06:40:17;14.80;;;12.63;;
10248;SDS011;5169;50.560;9.714;2022-08-19T06:42:52;13.93;;;12.43;;
10248;SDS011;5169;50.560;9.714;2022-08-19T06:45:22;13.03;;;11.60;;
10248;SDS011;5169;50.560;9.714;2022-08-19T06:47:51;12.37;;;10.60;;
10248;SDS011;5169;50.560;9.714;2022-08-19T06:50:22;14.50;;;10.50;;
10248;SDS011;5169;50.560;9.714;2022-08-19T06:52:51;13.10;;;10.80;;
10248;SDS011;5169;50.560;9.714;2022-08-19T06:55:16;11.87;;;10.30;;
10248;SDS011;5169;50.560;9.714;2022-08-19T06:57:45;12.27;;;10.87;;
10248;SDS011;5169;50.560;9.714;2022-08-19T07:00:12;12.73;;;9.90;;
10248;SDS011;5169;50.560;9.714;2022-08-19T07:02:42;13.00;;;11.03;;
10248;SDS011;5169;50.560;9.714;2022-08-19T07:05:11;13.27;;;10.77;;
10248;SDS011;5169;50.560;9.714;2022-08-19T07:07:37;15.10;;;13.50;;
10248;SDS011;5169;50.560;9.714;2022-08-19T07:10:03;16.70;;;14.67;;
10248;SDS011;5169;50.560;9.714;2022-08-19T07:12:31;15.13;;;13.17;;
10248;SDS011;5169;50.560;9.714;2022-08-19T07:15:03;16.63;;;13.20;;
10248;SDS011;5169;50.560;9.714;2022-08-19T07:17:37;14.83;;;13.30;;
10248;SDS011;5169;50.560;9.714;2022-08-19T07:20:04;15.47;;;13.10;;
10248;SDS011;5169;50.560;9.714;2022-08-19T07:22:35;15.13;;;13.57;;
10248;SDS011;5169;50.560;9.714;2022-08-19T07:25:02;15.00;;;12.40;;
10248;SDS011;5169;50.560;9.714;2022-08-19T07:27:30;14.43;;;12.93;;
10248;SDS011;5169;50.560;9.714;2022-08-19T07:30:02;18.07;;;12.70;;
10248;SDS011;5169;50.560;9.714;2022-08-19T07:32:29;12.57;;;11.23;;
10248;SDS011;5169;50.560;9.714;2022-08-19T07:34:59;12.77;;;11.33;;
10248;SDS011;5169;50.560;9.714;2022-08-19T07:37:25;10.70;;;9.53;;
10248;SDS011;5169;50.560;9.714;2022-08-19T07:40:04;11.30;;;8.73;;
10248;SDS011;5169;50.560;9.714;2022-08-19T07:42:34;10.37;;;8.00;;
10248;SDS011;5169;50.560;9.714;2022-08-19T07:45:04;8.83;;;7.67;;
10248;SDS011;5169;50.560;9.714;2022-08-19T07:47:30;10.50;;;7.43;;
10248;SDS011;5169;50.560;9.714;2022-08-19T07:50:07;9.70;;;7.20;;
10248;SDS011;5169;50.560;9.714;2022-08-19T07:52:39;9.67;;;7.03;;
10248;SDS011;5169;50.560;9.714;2022-08-19T07:55:06;9.13;;;7.60;;
10248;SDS011;5169;50.560;9.714;2022-08-19T07:57:33;8.33;;;6.93;;
10248;SDS011;5169;50.560;9.714;2022-08-19T08:00:03;9.83;;;6.87;;
10248;SDS011;5169;50.560;9.714;2022-08-19T08:02:30;9.37;;;7.03;;
10248;SDS011;5169;50.560;9.714;2022-08-19T08:04:56;7.30;;;6.47;;
10248;SDS011;5169;50.560;9.714;2022-08-19T08:07:42;10.73;;;7.23;;
10248;SDS011;5169;50.560;9.714;2022-08-19T08:10:26;7.30;;;6.20;;
10248;SDS011;5169;50.560;9.714;2022-08-19T08:12:52;8.03;;;6.63;;
10248;SDS011;5169;50.560;9.714;2022-08-19T08:15:21;8.50;;;6.47;;
10248;SDS011;5169;50.560;9.714;2022-08-19T08:17:54;6.83;;;6.13;;
10248;SDS011;5169;50.560;9.714;2022-08-19T08:20:21;8.13;;;6.37;;
10248;SDS011;5169;50.560;9.714;2022-08-19T08:22:47;8.30;;;6.37;;
10248;SDS011;5169;50.560;9.714;2022-08-19T08:25:35;7.10;;;6.20;;
10248;SDS011;5169;50.560;9.714;2022-08-19T08:28:06;9.13;;;6.47;;
10248;SDS011;5169;50.560;9.714;2022-08-19T08:30:41;9.03;;;6.43;;
10248;SDS011;5169;50.560;9.714;2022-08-19T08:33:08;7.83;;;5.90;;
10248;SDS011;5169;50.560;9.714;2022-08-19T08:35:34;7.90;;;5.67;;
10248;SDS011;5169;50.560;9.714;2022-08-19T08:38:10;8.50;;;5.77;;
10248;SDS011;5169;50.560;9.714;2022-08-19T08:40:57;6.30;;;5.20;;
10248;SDS011;5169;50.560;9.714;2022-08-19T08:43:54;7.00;;;5.10;;
10248;SDS011;5169;50.560;9.714;2022-08-19T08:46:56;5.43;;;4.93;;
10248;SDS011;5169;50.560;9.714;2022-08-19T08:49:31;4.70;;;3.70;;
10248;SDS011;5169;50.560;9.714;2022-08-19T08:52:22;6.23;;;4.40;;
10248;SDS011;5169;50.560;9.714;2022-08-19T08:55:05;5.00;;;3.90;;
10248;SDS011;5169;50.560;9.714;2022-08-19T08:57:52;4.93;;;4.43;;
10248;SDS011;5169;50.560;9.714;2022-08-19T09:00:43;6.63;;;4.80;;
10248;SDS011;5169;50.560;9.714;2022-08-19T09:03:19;6.90;;;4.40;;
10248;SDS011;5169;50.560;9.714;2022-08-19T09:11:49;4.60;;;4.20;;
10248;SDS011;5169;50.560;9.714;2022-08-19T09:17:21;4.67;;;4.13;;
10248;SDS011;5169;50.560;9.714;2022-08-19T09:22:52;5.73;;;3.70;;
10248;SDS011;5169;50.560;9.714;2022-08-19T09:25:21;7.80;;;4.60;;
10248;SDS011;5169;50.560;9.714;2022-08-19T09:27:48;6.00;;;4.57;;
10248;SDS011;5169;50.560;9.714;2022-08-19T09:30:31;6.00;;;4.10;;
10248;SDS011;5169;50.560;9.714;2022-08-19T09:33:05;9.50;;;4.33;;
10248;SDS011;5169;50.560;9.714;2022-08-19T09:35:33;8.07;;;3.63;;
10248;SDS011;5169;50.560;9.714;2022-08-19T09:38:00;4.67;;;3.90;;
10248;SDS011;5169;50.560;9.714;2022-08-19T09:40:34;4.33;;;3.30;;
10248;SDS011;5169;50.560;9.714;2022-08-19T09:43:06;5.93;;;3.67;;
10248;SDS011;5169;50.560;9.714;2022-08-19T09:45:40;5.37;;;3.50;;
10248;SDS011;5169;50.560;9.714;2022-08-19T09:48:06;7.20;;;4.17;;
10248;SDS011;5169;50.560;9.714;2022-08-19T09:50:34;6.00;;;3.80;;
10248;SDS011;5169;50.560;9.714;2022-08-19T09:53:06;4.90;;;3.97;;
10248;SDS011;5169;50.560;9.714;2022-08-19T09:55:32;5.13;;;3.93;;
10248;SDS011;5169;50.560;9.714;2022-08-19T09:57:59;7.17;;;3.83;;
10248;SDS011;5169;50.560;9.714;2022-08-19T10:00:29;7.27;;;3.57;;
10248;SDS011;5169;50.560;9.714;2022-08-19T10:02:57;4.70;;;3.60;;
10248;SDS011;5169;50.560;9.714;2022-08-19T10:05:23;6.07;;;3.67;;
10248;SDS011;5169;50.560;9.714;2022-08-19T10:08:07;6.27;;;3.40;;
10248;SDS011;5169;50.560;9.714;2022-08-19T10:10:35;4.20;;;3.43;;
10248;SDS011;5169;50.560;9.714;2022-08-19T10:13:00;5.77;;;3.27;;
10248;SDS011;5169;50.560;9.714;2022-08-19T10:15:29;4.17;;;2.87;;
10248;SDS011;5169;50.560;9.714;2022-08-19T10:17:59;5.87;;;3.73;;
10248;SDS011;5169;50.560;9.714;2022-08-19T10:20:35;5.40;;;2.60;;
10248;SDS011;5169;50.560;9.714;2022-08-19T10:23:01;4.37;;;3.10;;
10248;SDS011;5169;50.560;9.714;2022-08-19T10:25:31;6.60;;;3.40;;
10248;SDS011;5169;50.560;9.714;2022-08-19T10:27:57;4.67;;;3.63;;
10248;SDS011;5169;50.560;9.714;2022-08-19T10:30:25;3.30;;;3.00;;
10248;SDS011;5169;50.560;9.714;2022-08-19T10:32:57;4.87;;;3.00;;
10248;SDS011;5169;50.560;9.714;2022-08-19T10:35:23;3.90;;;2.57;;
10248;SDS011;5169;50.560;9.714;2022-08-19T10:37:55;7.73;;;3.57;;
10248;SDS011;5169;50.560;9.714;2022-08-19T10:40:25;4.43;;;2.73;;
10248;SDS011;5169;50.560;9.714;2022-08-19T10:42:57;3.00;;;2.70;;
10248;SDS011;5169;50.560;9.714;2022-08-19T10:45:23;4.50;;;2.90;;
10248;SDS011;5169;50.560;9.714;2022-08-19T10:47:54;4.75;;;3.17;;
10248;SDS011;5169;50.560;9.714;2022-08-19T10:50:22;3.33;;;2.55;;
10248;SDS011;5169;50.560;9.714;2022-08-19T10:53:07;3.40;;;2.90;;
10248;SDS011;5169;50.560;9.714;2022-08-19T10:55:36;3.47;;;2.80;;
10248;SDS011;5169;50.560;9.714;2022-08-19T10:58:22;3.38;;;2.70;;
10248;SDS011;5169;50.560;9.714;2022-08-19T11:00:51;4.82;;;2.80;;
10248;SDS011;5169;50.560;9.714;2022-08-19T11:03:21;2.83;;;2.40;;
10248;SDS011;5169;50.560;9.714;2022-08-19T11:06:00;5.35;;;2.55;;
10248;SDS011;5169;50.560;9.714;2022-08-19T11:08:32;2.65;;;2.20;;
10248;SDS011;5169;50.560;9.714;2022-08-19T11:11:00;2.85;;;2.08;;
10248;SDS011;5169;50.560;9.714;2022-08-19T11:13:31;6.18;;;2.88;;
10248;SDS011;5169;50.560;9.714;2022-08-19T11:16:13;3.20;;;2.80;;
10248;SDS011;5169;50.560;9.714;2022-08-19T11:18:50;3.83;;;2.67;;
10248;SDS011;5169;50.560;9.714;2022-08-19T11:21:27;2.60;;;2.40;;
10248;SDS011;5169;50.560;9.714;2022-08-19T11:24:02;4.13;;;2.50;;
10248;SDS011;5169;50.560;9.714;2022-08-19T11:26:35;3.67;;;2.08;;
10248;SDS011;5169;50.560;9.714;2022-08-19T11:29:02;3.20;;;2.40;;
10248;SDS011;5169;50.560;9.714;2022-08-19T11:31:38;4.32;;;2.65;;
10248;SDS011;5169;50.560;9.714;2022-08-19T11:34:10;4.20;;;2.42;;
10248;SDS011;5169;50.560;9.714;2022-08-19T11:36:42;3.17;;;2.33;;
10248;SDS011;5169;50.560;9.714;2022-08-19T11:39:19;2.90;;;2.20;;
10248;SDS011;5169;50.560;9.714;2022-08-19T11:41:52;2.20;;;1.77;;
10248;SDS011;5169;50.560;9.714;2022-08-19T11:44:18;2.58;;;1.80;;
10248;SDS011;5169;50.560;9.714;2022-08-19T11:46:53;2.28;;;1.63;;
10248;SDS011;5169;50.560;9.714;2022-08-19T11:49:19;3.13;;;2.00;;
10248;SDS011;5169;50.560;9.714;2022-08-19T11:51:50;3.80;;;2.40;;
10248;SDS011;5169;50.560;9.714;2022-08-19T11:54:16;5.15;;;2.20;;
10248;SDS011;5169;50.560;9.714;2022-08-19T11:56:42;3.92;;;2.45;;
10248;SDS011;5169;50.560;9.714;2022-08-19T11:59:09;3.50;;;2.40;;
10248;SDS011;5169;50.560;9.714;2022-08-19T12:01:42;4.45;;;2.25;;
10248;SDS011;5169;50.560;9.714;2022-08-19T12:04:10;2.95;;;2.47;;
10248;SDS011;5169;50.560;9.714;2022-08-19T12:06:42;3.25;;;2.40;;
10248;SDS011;5169;50.560;9.714;2022-08-19T12:09:10;4.22;;;2.22;;
10248;SDS011;5169;50.560;9.714;2022-08-19T12:11:41;3.90;;;1.90;;
10248;SDS011;5169;50.560;9.714;2022-08-19T12:14:09;3.03;;;2.33;;
10248;SDS011;5169;50.560;9.714;2022-08-19T12:16:39;2.28;;;2.05;;
10248;SDS011;5169;50.560;9.714;2022-08-19T12:19:07;5.25;;;2.22;;
10248;SDS011;5169;50.560;9.714;2022-08-19T12:21:34;2.60;;;2.05;;
10248;SDS011;5169;50.560;9.714;2022-08-19T12:24:09;2.63;;;2.08;;
10248;SDS011;5169;50.560;9.714;2022-08-19T12:26:35;2.10;;;1.90;;
10248;SDS011;5169;50.560;9.714;2022-08-19T12:29:07;1.95;;;1.67;;
10248;SDS011;5169;50.560;9.714;2022-08-19T12:31:33;4.20;;;2.10;;
10248;SDS011;5169;50.560;9.714;2022-08-19T12:33:59;2.22;;;2.00;;
10248;SDS011;5169;50.560;9.714;2022-08-19T12:36:28;4.10;;;1.90;;
10248;SDS011;5169;50.560;9.714;2022-08-19T12:38:54;2.05;;;1.85;;
10248;SDS011;5169;50.560;9.714;2022-08-19T12:41:22;3.00;;;1.85;;
10248;SDS011;5169;50.560;9.714;2022-08-19T12:43:48;2.45;;;1.95;;
10248;SDS011;5169;50.560;9.714;2022-08-19T12:46:18;3.05;;;1.80;;
10248;SDS011;5169;50.560;9.714;2022-08-19T12:48:44;2.10;;;1.90;;
10248;SDS011;5169;50.560;9.714;2022-08-19T12:51:17;2.55;;;1.92;;
10248;SDS011;5169;50.560;9.714;2022-08-19T12:53:46;2.55;;;1.70;;
10248;SDS011;5169;50.560;9.714;2022-08-19T12:56:17;2.22;;;1.80;;
10248;SDS011;5169;50.560;9.714;2022-08-19T12:58:44;2.25;;;1.73;;
10248;SDS011;5169;50.560;9.714;2022-08-19T13:01:12;2.22;;;2.00;;
10248;SDS011;5169;50.560;9.714;2022-08-19T13:03:45;2.75;;;1.85;;
10248;SDS011;5169;50.560;9.714;2022-08-19T13:06:36;2.08;;;1.85;;
10248;SDS011;5169;50.560;9.714;2022-08-19T13:09:08;2.15;;;2.05;;
10248;SDS011;5169;50.560;9.714;2022-08-19T13:11:40;3.42;;;2.20;;
10248;SDS011;5169;50.560;9.714;2022-08-19T13:14:05;6.40;;;5.80;;
10248;SDS011;5169;50.560;9.714;2022-08-19T13:16:33;3.17;;;2.80;;
10248;SDS011;5169;50.560;9.714;2022-08-19T13:19:07;2.20;;;2.00;;
10248;SDS011;5169;50.560;9.714;2022-08-19T13:21:33;2.05;;;1.83;;
10248;SDS011;5169;50.560;9.714;2022-08-19T13:24:07;2.50;;;2.28;;
10248;SDS011;5169;50.560;9.714;2022-08-19T13:26:33;3.17;;;1.95;;
10248;SDS011;5169;50.560;9.714;2022-08-19T13:29:06;2.25;;;2.05;;
10248;SDS011;5169;50.560;9.714;2022-08-19T13:31:54;2.33;;;1.90;;
10248;SDS011;5169;50.560;9.714;2022-08-19T13:34:39;2.42;;;1.90;;
10248;SDS011;5169;50.560;9.714;2022-08-19T13:37:05;2.00;;;1.77;;
10248;SDS011;5169;50.560;9.714;2022-08-19T13:39:34;2.50;;;2.10;;
10248;SDS011;5169;50.560;9.714;2022-08-19T13:42:06;4.63;;;2.00;;
10248;SDS011;5169;50.560;9.714;2022-08-19T13:44:33;2.95;;;2.10;;
10248;SDS011;5169;50.560;9.714;2022-08-19T13:47:07;2.40;;;1.90;;
10248;SDS011;5169;50.560;9.714;2022-08-19T13:49:35;2.28;;;2.08;;
10248;SDS011;5169;50.560;9.714;2022-08-19T13:52:07;2.92;;;2.00;;
10248;SDS011;5169;50.560;9.714;2022-08-19T13:54:41;3.70;;;2.10;;
10248;SDS011;5169;50.560;9.714;2022-08-19T13:57:08;5.07;;;2.15;;
10248;SDS011;5169;50.560;9.714;2022-08-19T13:59:39;3.47;;;2.00;;
10248;SDS011;5169;50.560;9.714;2022-08-19T14:02:07;3.25;;;1.80;;
10248;SDS011;5169;50.560;9.714;2022-08-19T14:04:43;2.20;;;1.95;;
10248;SDS011;5169;50.560;9.714;2022-08-19T14:07:09;2.10;;;1.73;;
10248;SDS011;5169;50.560;9.714;2022-08-19T14:09:35;2.95;;;2.28;;
10248;SDS011;5169;50.560;9.714;2022-08-19T14:12:03;2.90;;;2.00;;
10248;SDS011;5169;50.560;9.714;2022-08-19T14:14:29;2.10;;;1.90;;
10248;SDS011;5169;50.560;9.714;2022-08-19T14:16:55;2.50;;;2.30;;
10248;SDS011;5169;50.560;9.714;2022-08-19T14:19:21;2.28;;;2.08;;
10248;SDS011;5169;50.560;9.714;2022-08-19T14:21:46;2.40;;;2.00;;
10248;SDS011;5169;50.560;9.714;2022-08-19T14:24:18;2.50;;;2.25;;
10248;SDS011;5169;50.560;9.714;2022-08-19T14:26:46;2.15;;;1.90;;
10248;SDS011;5169;50.560;9.714;2022-08-19T14:29:19;2.47;;;2.10;;
10248;SDS011;5169;50.560;9.714;2022-08-19T14:31:54;5.88;;;2.35;;
10248;SDS011;5169;50.560;9.714;2022-08-19T14:34:29;4.47;;;2.30;;
10248;SDS011;5169;50.560;9.714;2022-08-19T14:36:57;5.35;;;2.50;;
10248;SDS011;5169;50.560;9.714;2022-08-19T14:39:27;2.33;;;1.90;;
10248;SDS011;5169;50.560;9.714;2022-08-19T14:41:58;2.55;;;2.33;;
10248;SDS011;5169;50.560;9.714;2022-08-19T14:44:31;4.45;;;2.33;;
10248;SDS011;5169;50.560;9.714;2022-08-19T14:46:59;4.05;;;2.00;;
10248;SDS011;5169;50.560;9.714;2022-08-19T14:49:27;3.15;;;2.13;;
10248;SDS011;5169;50.560;9.714;2022-08-19T14:51:59;4.70;;;2.10;;
10248;SDS011;5169;50.560;9.714;2022-08-19T14:54:24;6.40;;;2.45;;
10248;SDS011;5169;50.560;9.714;2022-08-19T14:56:50;2.85;;;2.53;;
10248;SDS011;5169;50.560;9.714;2022-08-19T14:59:23;2.70;;;2.00;;
10248;SDS011;5169;50.560;9.714;2022-08-19T15:01:51;2.47;;;2.28;;
10248;SDS011;5169;50.560;9.714;2022-08-19T15:04:25;3.25;;;2.00;;
10248;SDS011;5169;50.560;9.714;2022-08-19T15:06:51;2.50;;;2.13;;
10248;SDS011;5169;50.560;9.714;2022-08-19T15:09:24;2.20;;;2.00;;
10248;SDS011;5169;50.560;9.714;2022-08-19T15:11:49;2.67;;;2.30;;
10248;SDS011;5169;50.560;9.714;2022-08-19T15:14:15;2.35;;;2.20;;
10248;SDS011;5169;50.560;9.714;2022-08-19T15:16:50;2.40;;;2.20;;
10248;SDS011;5169;50.560;9.714;2022-08-19T15:19:25;4.20;;;2.50;;
10248;SDS011;5169;50.560;9.714;2022-08-19T15:21:56;2.63;;;2.38;;
10248;SDS011;5169;50.560;9.714;2022-08-19T15:24:22;2.70;;;2.50;;